Terminal Aerodrome Forecast
Issued by NWS Charleston, WV

Current Version | Previous Version | Text Only | Print | Product List | Glossary Off
Versions: 1 2 3 4 5 6 7 8 9 10 11 12 13 14 15 16 17 18 19 20 21 22 23 24

000
FTUS41 KRLX 081700
TAFEKN
TAF
KEKN 081740Z 0818/0918 23013G22KT P6SM BKN045
     FM082000 24013G19KT 6SM +SHRA VCTS BKN045CB
     FM082100 24012G17KT 5SM -TSRA BKN045CB
      TEMPO 0821/0823 2SM TSRA BKN025CB
     FM090100 24011G17KT 6SM SHRA VCTS OVC045CB
     FM090600 25005KT 4SM BR BKN040
     FM090800 00000KT 1SM BR SCT050
     FM090900 00000KT 1/4SM FG BKN001
     FM091100 25007KT 1SM BR SCT080
     FM091200 26008KT 4SM BR SCT070
     FM091700 26009KT P6SM BKN045=

USA.gov is the U.S. government's official web portal to all federal, state and local government web resources and services.